Passau, Germany

3:07 PM CEST on July 28, 2016 (GMT +0200)
Milchgasse | | Change Station

Elev 997 ft 48.57 °N, 13.47 °E | Updated 3 minutes ago

Clear
Clear
84.7 °F
Feels Like 85 °F
N
0.6
Wind Variable Wind from SSW
Gusts 2.5 mph

Today
High -- | Low -- °F
--% Chance of Precip.
Yesterday
High -- | Low -- °F
Precip. -- in
Pressure 30.04 in
Visibility -9999.0 miles
Clouds
Heat Index 85 °F
Dew Point 62 °F
Humidity 46%
Rainfall 0.00 in
Snow Depth Not available.
5:35 AM 8:48 PM
Waning Crescent, 32% visible
METAR LOWL 281250Z VRB02KT CAVOK 23/17 Q1017 NOSIG
Pressure 30.04 in
Visibility -9999.0 miles
Clouds
Heat Index 85 °F
Dew Point 62 °F
Humidity 46%
Rainfall 0.00 in
Snow Depth Not available.
5:35 AM 8:48 PM
Waning Crescent, 32% visible
METAR LOWL 281250Z VRB02KT CAVOK 23/17 Q1017 NOSIG

10-Day Weather Forecast

×

Almanac

Astronomy

Jul. 28, 2016 Rise Set
Actual Time
Civil Twilight
Nautical Twilight
Astronomical Twilight
Moon
Length of Visible Light
Length of Day
Tomorrow will be .
, % of the Moon is Illuminated

Today's Extremes

Country Highs Country Lows

Community

WunderPhotos

Upload Photos

1,928,109 photos uploaded!

WunderBlog® & News

Nearby

Air Quality

  Air Quality AQ Index Pollutant
Not available.

Snow Depth

Station Depth Elevation

Earthquake Activity

City Distance Mag. Time & Date
Minimum magnitude displayed is 2.5.

Coastal Water Temperatures

Place Temperature

Stations

Nearby Weather Stations

Station Location Temp. Windchill Dew Point Humidity Wind Precip. Elev Updated Type